sensor_id;sensor_type;location;lat;lon;timestamp;pressure;altitude;pressure_sealevel;temperature;humidity
64908;BME280;69061;52.236;5.188;2024-01-16T00:00:13;100836.78;;;5.39;80.07
64908;BME280;69061;52.236;5.188;2024-01-16T00:02:40;100856.22;;;5.47;80.27
64908;BME280;69061;52.236;5.188;2024-01-16T00:05:10;100859.56;;;5.56;82.35
64908;BME280;69061;52.236;5.188;2024-01-16T00:07:39;100851.09;;;5.63;80.98
64908;BME280;69061;52.236;5.188;2024-01-16T00:10:09;100847.78;;;5.54;79.39
64908;BME280;69061;52.236;5.188;2024-01-16T00:12:36;100844.94;;;5.47;80.08
64908;BME280;69061;52.236;5.188;2024-01-16T00:15:03;100833.16;;;5.32;79.34
64908;BME280;69061;52.236;5.188;2024-01-16T00:17:31;100831.41;;;5.36;80.79
64908;BME280;69061;52.236;5.188;2024-01-16T00:19:57;100827.22;;;5.35;80.81
64908;BME280;69061;52.236;5.188;2024-01-16T00:22:27;100832.59;;;5.38;80.30
64908;BME280;69061;52.236;5.188;2024-01-16T00:24:54;100836.13;;;5.43;80.57
64908;BME280;69061;52.236;5.188;2024-01-16T00:27:21;100830.75;;;5.39;79.93
64908;BME280;69061;52.236;5.188;2024-01-16T00:29:47;100836.91;;;5.43;79.32
64908;BME280;69061;52.236;5.188;2024-01-16T00:32:14;100833.59;;;5.34;79.95
64908;BME280;69061;52.236;5.188;2024-01-16T00:34:42;100830.72;;;5.27;78.86
64908;BME280;69061;52.236;5.188;2024-01-16T00:37:08;100828.41;;;5.25;79.56
64908;BME280;69061;52.236;5.188;2024-01-16T00:39:36;100831.69;;;5.22;79.70
64908;BME280;69061;52.236;5.188;2024-01-16T00:42:04;100826.75;;;5.20;81.18
64908;BME280;69061;52.236;5.188;2024-01-16T00:44:31;100826.31;;;5.18;79.24
64908;BME280;69061;52.236;5.188;2024-01-16T00:46:58;100837.47;;;5.15;77.98
64908;BME280;69061;52.236;5.188;2024-01-16T00:49:26;100833.63;;;5.13;79.21
64908;BME280;69061;52.236;5.188;2024-01-16T00:51:53;100825.63;;;5.09;78.64
64908;BME280;69061;52.236;5.188;2024-01-16T00:54:19;100840.22;;;5.06;78.97
64908;BME280;69061;52.236;5.188;2024-01-16T00:56:47;100850.41;;;5.08;80.81
64908;BME280;69061;52.236;5.188;2024-01-16T00:59:14;100840.44;;;5.14;80.46
64908;BME280;69061;52.236;5.188;2024-01-16T01:01:41;100846.50;;;5.14;79.01
64908;BME280;69061;52.236;5.188;2024-01-16T01:04:07;100841.88;;;5.23;79.64
64908;BME280;69061;52.236;5.188;2024-01-16T01:06:35;100848.72;;;5.25;78.34
64908;BME280;69061;52.236;5.188;2024-01-16T01:09:01;100849.38;;;5.21;77.25
64908;BME280;69061;52.236;5.188;2024-01-16T01:11:29;100856.38;;;5.17;76.74
64908;BME280;69061;52.236;5.188;2024-01-16T01:13:58;100857.13;;;5.18;78.25
64908;BME280;69061;52.236;5.188;2024-01-16T01:16:26;100851.09;;;5.17;77.88
64908;BME280;69061;52.236;5.188;2024-01-16T01:18:52;100854.06;;;5.16;78.63
64908;BME280;69061;52.236;5.188;2024-01-16T01:21:19;100853.28;;;5.15;78.53
64908;BME280;69061;52.236;5.188;2024-01-16T01:23:46;100853.75;;;5.17;77.09
64908;BME280;69061;52.236;5.188;2024-01-16T01:26:13;100858.88;;;5.14;78.62
64908;BME280;69061;52.236;5.188;2024-01-16T01:28:40;100875.00;;;5.12;80.26
64908;BME280;69061;52.236;5.188;2024-01-16T01:31:10;100880.78;;;5.27;82.30
64908;BME280;69061;52.236;5.188;2024-01-16T01:33:37;100889.06;;;5.37;82.99
64908;BME280;69061;52.236;5.188;2024-01-16T01:36:04;100896.09;;;5.46;82.84
64908;BME280;69061;52.236;5.188;2024-01-16T01:38:33;100884.69;;;5.54;82.80
64908;BME280;69061;52.236;5.188;2024-01-16T01:41:00;100893.16;;;5.60;82.38
64908;BME280;69061;52.236;5.188;2024-01-16T01:43:27;100893.81;;;5.56;83.15
64908;BME280;69061;52.236;5.188;2024-01-16T01:46:07;100895.81;;;5.60;83.56
64908;BME280;69061;52.236;5.188;2024-01-16T01:48:36;100884.28;;;5.64;84.71
64908;BME280;69061;52.236;5.188;2024-01-16T01:51:03;100885.38;;;5.63;83.57
64908;BME280;69061;52.236;5.188;2024-01-16T01:53:31;100877.22;;;5.56;83.22
64908;BME280;69061;52.236;5.188;2024-01-16T01:55:59;100856.00;;;5.40;81.26
64908;BME280;69061;52.236;5.188;2024-01-16T01:58:28;100863.22;;;5.31;81.53
64908;BME280;69061;52.236;5.188;2024-01-16T02:00:55;100869.34;;;5.22;83.28
64908;BME280;69061;52.236;5.188;2024-01-16T02:03:23;100865.81;;;5.18;82.88
64908;BME280;69061;52.236;5.188;2024-01-16T02:05:55;100862.06;;;5.19;84.08
64908;BME280;69061;52.236;5.188;2024-01-16T02:08:22;100870.13;;;5.23;83.78
64908;BME280;69061;52.236;5.188;2024-01-16T02:10:49;100878.78;;;5.23;84.02
64908;BME280;69061;52.236;5.188;2024-01-16T02:13:18;100867.16;;;5.25;84.88
64908;BME280;69061;52.236;5.188;2024-01-16T02:15:49;100865.59;;;5.23;82.74
64908;BME280;69061;52.236;5.188;2024-01-16T02:18:15;100873.97;;;5.26;84.13
64908;BME280;69061;52.236;5.188;2024-01-16T02:20:42;100869.47;;;5.26;84.72
64908;BME280;69061;52.236;5.188;2024-01-16T02:23:13;100880.00;;;5.26;83.30
64908;BME280;69061;52.236;5.188;2024-01-16T02:25:42;100873.31;;;5.29;84.16
64908;BME280;69061;52.236;5.188;2024-01-16T02:28:08;100870.34;;;5.30;82.97
64908;BME280;69061;52.236;5.188;2024-01-16T02:30:35;100865.59;;;5.23;83.37
64908;BME280;69061;52.236;5.188;2024-01-16T02:33:02;100865.38;;;5.16;84.49
64908;BME280;69061;52.236;5.188;2024-01-16T02:35:29;100859.66;;;5.14;85.56
64908;BME280;69061;52.236;5.188;2024-01-16T02:37:55;100851.31;;;5.12;84.85
64908;BME280;69061;52.236;5.188;2024-01-16T02:40:22;100848.00;;;5.15;84.49
64908;BME280;69061;52.236;5.188;2024-01-16T02:42:50;100861.00;;;5.20;84.90
64908;BME280;69061;52.236;5.188;2024-01-16T02:45:17;100866.41;;;5.24;85.48
64908;BME280;69061;52.236;5.188;2024-01-16T02:47:44;100868.69;;;5.26;84.47
64908;BME280;69061;52.236;5.188;2024-01-16T02:50:10;100859.94;;;5.34;84.20
64908;BME280;69061;52.236;5.188;2024-01-16T02:52:37;100865.97;;;5.34;83.61
64908;BME280;69061;52.236;5.188;2024-01-16T02:55:05;100863.91;;;5.40;84.05
64908;BME280;69061;52.236;5.188;2024-01-16T02:57:32;100863.91;;;5.40;82.88
64908;BME280;69061;52.236;5.188;2024-01-16T03:00:03;100869.94;;;5.40;83.15
64908;BME280;69061;52.236;5.188;2024-01-16T03:02:31;100862.03;;;5.40;82.47
64908;BME280;69061;52.236;5.188;2024-01-16T03:04:57;100858.63;;;5.28;82.45
64908;BME280;69061;52.236;5.188;2024-01-16T03:07:24;100864.97;;;5.27;83.89
64908;BME280;69061;52.236;5.188;2024-01-16T03:09:51;100865.06;;;5.30;85.11
64908;BME280;69061;52.236;5.188;2024-01-16T03:12:17;100868.94;;;5.33;83.76
64908;BME280;69061;52.236;5.188;2024-01-16T03:14:44;100857.84;;;5.39;84.98
64908;BME280;69061;52.236;5.188;2024-01-16T03:17:12;100856.56;;;5.46;84.49
64908;BME280;69061;52.236;5.188;2024-01-16T03:19:38;100864.91;;;5.48;83.52
64908;BME280;69061;52.236;5.188;2024-01-16T03:22:05;100856.03;;;5.52;83.29
64908;BME280;69061;52.236;5.188;2024-01-16T03:24:33;100858.22;;;5.50;83.67
64908;BME280;69061;52.236;5.188;2024-01-16T03:27:00;100852.72;;;5.43;82.38
64908;BME280;69061;52.236;5.188;2024-01-16T03:29:26;100849.63;;;5.41;82.88
64908;BME280;69061;52.236;5.188;2024-01-16T03:31:53;100860.16;;;5.41;82.29
64908;BME280;69061;52.236;5.188;2024-01-16T03:34:21;100857.09;;;5.39;82.64
64908;BME280;69061;52.236;5.188;2024-01-16T03:36:47;100860.34;;;5.23;82.05
64908;BME280;69061;52.236;5.188;2024-01-16T03:39:14;100861.81;;;5.00;81.23
64908;BME280;69061;52.236;5.188;2024-01-16T03:41:41;100864.13;;;4.80;80.95
64908;BME280;69061;52.236;5.188;2024-01-16T03:44:07;100853.78;;;4.54;81.85
64908;BME280;69061;52.236;5.188;2024-01-16T03:46:34;100850.03;;;4.34;81.78
64908;BME280;69061;52.236;5.188;2024-01-16T03:49:01;100848.16;;;4.13;83.07
64908;BME280;69061;52.236;5.188;2024-01-16T03:51:29;100855.03;;;3.97;83.84
64908;BME280;69061;52.236;5.188;2024-01-16T03:53:56;100849.22;;;3.82;83.43
64908;BME280;69061;52.236;5.188;2024-01-16T03:56:23;100851.41;;;3.71;83.79
64908;BME280;69061;52.236;5.188;2024-01-16T03:58:50;100841.13;;;3.49;83.70
64908;BME280;69061;52.236;5.188;2024-01-16T04:01:16;100847.78;;;3.46;83.98
64908;BME280;69061;52.236;5.188;2024-01-16T04:03:43;100852.44;;;3.41;84.84
64908;BME280;69061;52.236;5.188;2024-01-16T04:06:16;100855.66;;;3.46;85.65
64908;BME280;69061;52.236;5.188;2024-01-16T04:08:44;100854.09;;;3.54;88.10
64908;BME280;69061;52.236;5.188;2024-01-16T04:11:12;100861.19;;;3.71;88.17
64908;BME280;69061;52.236;5.188;2024-01-16T04:13:40;100857.25;;;3.86;87.86
64908;BME280;69061;52.236;5.188;2024-01-16T04:16:07;100859.81;;;4.03;87.88
64908;BME280;69061;52.236;5.188;2024-01-16T04:18:35;100863.03;;;4.09;86.55
64908;BME280;69061;52.236;5.188;2024-01-16T04:21:03;100865.34;;;4.11;86.89
64908;BME280;69061;52.236;5.188;2024-01-16T04:23:30;100858.03;;;4.16;87.54
64908;BME280;69061;52.236;5.188;2024-01-16T04:25:58;100859.41;;;4.22;88.15
64908;BME280;69061;52.236;5.188;2024-01-16T04:28:24;100853.75;;;4.33;86.77
64908;BME280;69061;52.236;5.188;2024-01-16T04:30:51;100847.56;;;4.37;86.08
64908;BME280;69061;52.236;5.188;2024-01-16T04:33:17;100848.09;;;4.22;86.37
64908;BME280;69061;52.236;5.188;2024-01-16T04:35:45;100838.72;;;4.12;85.99
64908;BME280;69061;52.236;5.188;2024-01-16T04:38:12;100838.38;;;4.14;87.19
64908;BME280;69061;52.236;5.188;2024-01-16T04:40:38;100828.38;;;4.07;86.96
64908;BME280;69061;52.236;5.188;2024-01-16T04:43:07;100830.56;;;4.05;87.09
64908;BME280;69061;52.236;5.188;2024-01-16T04:45:33;100830.09;;;4.03;86.85
64908;BME280;69061;52.236;5.188;2024-01-16T04:48:00;100832.59;;;3.99;87.14
64908;BME280;69061;52.236;5.188;2024-01-16T04:50:27;100825.16;;;4.01;88.73
64908;BME280;69061;52.236;5.188;2024-01-16T04:52:57;100828.25;;;4.03;87.84
64908;BME280;69061;52.236;5.188;2024-01-16T04:55:26;100828.06;;;4.09;87.71
64908;BME280;69061;52.236;5.188;2024-01-16T04:57:53;100829.28;;;4.11;87.01
64908;BME280;69061;52.236;5.188;2024-01-16T05:00:22;100824.09;;;3.94;85.80
64908;BME280;69061;52.236;5.188;2024-01-16T05:02:48;100815.53;;;3.76;85.92
64908;BME280;69061;52.236;5.188;2024-01-16T05:05:16;100823.91;;;3.69;86.97
64908;BME280;69061;52.236;5.188;2024-01-16T05:07:44;100804.22;;;3.45;86.65
64908;BME280;69061;52.236;5.188;2024-01-16T05:10:11;100816.13;;;3.43;86.24
64908;BME280;69061;52.236;5.188;2024-01-16T05:12:38;100805.50;;;3.22;86.58
64908;BME280;69061;52.236;5.188;2024-01-16T05:15:06;100802.75;;;3.09;88.15
64908;BME280;69061;52.236;5.188;2024-01-16T05:17:35;100799.53;;;3.03;88.06
64908;BME280;69061;52.236;5.188;2024-01-16T05:20:03;100791.03;;;2.98;87.90
64908;BME280;69061;52.236;5.188;2024-01-16T05:22:32;100784.25;;;2.97;89.91
64908;BME280;69061;52.236;5.188;2024-01-16T05:24:59;100790.41;;;3.01;89.72
64908;BME280;69061;52.236;5.188;2024-01-16T05:27:25;100786.53;;;3.07;90.61
64908;BME280;69061;52.236;5.188;2024-01-16T05:29:52;100788.38;;;3.15;90.61
64908;BME280;69061;52.236;5.188;2024-01-16T05:32:20;100789.59;;;3.27;91.84
64908;BME280;69061;52.236;5.188;2024-01-16T05:34:48;100786.63;;;3.37;91.07
64908;BME280;69061;52.236;5.188;2024-01-16T05:37:14;100778.91;;;3.32;90.38
64908;BME280;69061;52.236;5.188;2024-01-16T05:39:41;100786.44;;;3.42;91.15
64908;BME280;69061;52.236;5.188;2024-01-16T05:42:08;100780.03;;;3.61;91.57
64908;BME280;69061;52.236;5.188;2024-01-16T05:44:36;100786.19;;;3.74;90.97
64908;BME280;69061;52.236;5.188;2024-01-16T05:47:03;100788.31;;;3.80;90.49
64908;BME280;69061;52.236;5.188;2024-01-16T05:49:31;100787.50;;;3.88;90.11
64908;BME280;69061;52.236;5.188;2024-01-16T05:51:59;100784.53;;;3.90;89.91
64908;BME280;69061;52.236;5.188;2024-01-16T05:54:25;100789.56;;;4.04;88.60
64908;BME280;69061;52.236;5.188;2024-01-16T05:56:52;100781.41;;;3.97;88.74
64908;BME280;69061;52.236;5.188;2024-01-16T05:59:18;100785.84;;;4.05;89.55
64908;BME280;69061;52.236;5.188;2024-01-16T06:01:45;100783.28;;;4.17;90.91
64908;BME280;69061;52.236;5.188;2024-01-16T06:04:12;100788.63;;;4.30;89.84
64908;BME280;69061;52.236;5.188;2024-01-16T06:06:38;100780.59;;;4.47;90.58
64908;BME280;69061;52.236;5.188;2024-01-16T06:09:12;100787.97;;;4.54;89.49
64908;BME280;69061;52.236;5.188;2024-01-16T06:11:39;100790.66;;;4.66;89.15
64908;BME280;69061;52.236;5.188;2024-01-16T06:14:06;100789.00;;;4.62;86.78
64908;BME280;69061;52.236;5.188;2024-01-16T06:16:33;100788.88;;;4.58;87.32
64908;BME280;69061;52.236;5.188;2024-01-16T06:18:59;100787.16;;;4.41;86.84
64908;BME280;69061;52.236;5.188;2024-01-16T06:21:26;100794.94;;;4.37;87.06
64908;BME280;69061;52.236;5.188;2024-01-16T06:23:53;100788.25;;;4.40;87.46
64908;BME280;69061;52.236;5.188;2024-01-16T06:26:21;100784.41;;;4.37;87.84
64908;BME280;69061;52.236;5.188;2024-01-16T06:28:48;100792.63;;;4.36;87.53
64908;BME280;69061;52.236;5.188;2024-01-16T06:31:16;100782.19;;;4.39;88.21
64908;BME280;69061;52.236;5.188;2024-01-16T06:33:43;100771.69;;;4.39;87.41
64908;BME280;69061;52.236;5.188;2024-01-16T06:36:09;100777.84;;;4.44;87.12
64908;BME280;69061;52.236;5.188;2024-01-16T06:38:38;100786.34;;;4.49;86.53
64908;BME280;69061;52.236;5.188;2024-01-16T06:41:04;100787.59;;;4.43;86.02
64908;BME280;69061;52.236;5.188;2024-01-16T06:43:33;100781.78;;;4.37;87.07
64908;BME280;69061;52.236;5.188;2024-01-16T06:45:59;100771.25;;;4.37;88.00
64908;BME280;69061;52.236;5.188;2024-01-16T06:48:28;100790.81;;;4.49;88.29
64908;BME280;69061;52.236;5.188;2024-01-16T06:50:54;100781.19;;;4.53;87.49
64908;BME280;69061;52.236;5.188;2024-01-16T06:53:21;100788.56;;;4.60;86.54
64908;BME280;69061;52.236;5.188;2024-01-16T06:55:47;100795.81;;;4.63;86.47
64908;BME280;69061;52.236;5.188;2024-01-16T06:58:14;100799.66;;;4.65;87.14
64908;BME280;69061;52.236;5.188;2024-01-16T07:00:42;100788.94;;;4.70;86.59
64908;BME280;69061;52.236;5.188;2024-01-16T07:03:10;100792.59;;;4.78;86.11
64908;BME280;69061;52.236;5.188;2024-01-16T07:05:36;100787.47;;;4.82;85.18
64908;BME280;69061;52.236;5.188;2024-01-16T07:08:03;100794.38;;;4.86;86.24
64908;BME280;69061;52.236;5.188;2024-01-16T07:10:30;100798.56;;;4.87;85.79
64908;BME280;69061;52.236;5.188;2024-01-16T07:12:57;100796.81;;;4.92;84.57
64908;BME280;69061;52.236;5.188;2024-01-16T07:15:23;100790.34;;;5.01;85.68
64908;BME280;69061;52.236;5.188;2024-01-16T07:17:51;100796.19;;;5.07;84.89
64908;BME280;69061;52.236;5.188;2024-01-16T07:20:18;100802.81;;;5.13;84.86
64908;BME280;69061;52.236;5.188;2024-01-16T07:22:45;100808.97;;;5.17;84.09
64908;BME280;69061;52.236;5.188;2024-01-16T07:25:12;100806.75;;;5.19;83.73
64908;BME280;69061;52.236;5.188;2024-01-16T07:27:39;100812.81;;;5.20;84.06
64908;BME280;69061;52.236;5.188;2024-01-16T07:30:08;100815.78;;;5.18;83.71
64908;BME280;69061;52.236;5.188;2024-01-16T07:32:34;100808.63;;;5.19;83.63
64908;BME280;69061;52.236;5.188;2024-01-16T07:35:03;100804.13;;;5.19;83.51
64908;BME280;69061;52.236;5.188;2024-01-16T07:37:30;100810.06;;;5.29;84.34
64908;BME280;69061;52.236;5.188;2024-01-16T07:39:56;100811.41;;;5.35;83.71
64908;BME280;69061;52.236;5.188;2024-01-16T07:42:23;100804.94;;;5.45;83.17
64908;BME280;69061;52.236;5.188;2024-01-16T07:44:50;100805.38;;;5.47;83.08
64908;BME280;69061;52.236;5.188;2024-01-16T07:47:16;100812.72;;;5.41;81.67
64908;BME280;69061;52.236;5.188;2024-01-16T07:49:43;100803.91;;;5.25;81.63
64908;BME280;69061;52.236;5.188;2024-01-16T07:52:11;100817.53;;;5.27;82.86
64908;BME280;69061;52.236;5.188;2024-01-16T07:54:38;100814.09;;;5.14;82.30
64908;BME280;69061;52.236;5.188;2024-01-16T07:57:05;100815.63;;;5.15;83.39
64908;BME280;69061;52.236;5.188;2024-01-16T07:59:31;100822.69;;;5.23;84.89
64908;BME280;69061;52.236;5.188;2024-01-16T08:01:58;100826.75;;;5.33;84.34
64908;BME280;69061;52.236;5.188;2024-01-16T08:04:24;100811.41;;;5.35;84.13
64908;BME280;69061;52.236;5.188;2024-01-16T08:06:52;100815.81;;;5.43;83.94
64908;BME280;69061;52.236;5.188;2024-01-16T08:09:20;100818.44;;;5.31;83.67
64908;BME280;69061;52.236;5.188;2024-01-16T08:11:47;100810.72;;;5.26;84.11
64908;BME280;69061;52.236;5.188;2024-01-16T08:14:13;100810.41;;;5.27;83.04
64908;BME280;69061;52.236;5.188;2024-01-16T08:16:40;100810.94;;;5.33;83.20
64908;BME280;69061;52.236;5.188;2024-01-16T08:19:06;100812.28;;;5.27;82.22
64908;BME280;69061;52.236;5.188;2024-01-16T08:21:33;100808.44;;;5.24;82.07
64908;BME280;69061;52.236;5.188;2024-01-16T08:24:00;100807.19;;;5.09;81.98
64908;BME280;69061;52.236;5.188;2024-01-16T08:26:28;100801.91;;;5.09;82.15
64908;BME280;69061;52.236;5.188;2024-01-16T08:28:54;100812.69;;;5.16;83.20
64908;BME280;69061;52.236;5.188;2024-01-16T08:31:21;100803.66;;;5.05;82.51
64908;BME280;69061;52.236;5.188;2024-01-16T08:33:48;100807.34;;;4.92;82.11
64908;BME280;69061;52.236;5.188;2024-01-16T08:36:14;100800.81;;;4.77;82.03
64908;BME280;69061;52.236;5.188;2024-01-16T08:38:41;100811.22;;;4.73;83.33
64908;BME280;69061;52.236;5.188;2024-01-16T08:41:08;100806.50;;;4.79;83.36
64908;BME280;69061;52.236;5.188;2024-01-16T08:43:36;100802.06;;;4.92;83.50
64908;BME280;69061;52.236;5.188;2024-01-16T08:46:03;100804.50;;;4.97;82.11
64908;BME280;69061;52.236;5.188;2024-01-16T08:48:30;100806.03;;;4.98;81.93
64908;BME280;69061;52.236;5.188;2024-01-16T08:50:56;100805.72;;;4.99;82.46
64908;BME280;69061;52.236;5.188;2024-01-16T08:53:24;100805.06;;;5.02;82.52
64908;BME280;69061;52.236;5.188;2024-01-16T08:55:51;100811.47;;;5.14;82.01
64908;BME280;69061;52.236;5.188;2024-01-16T08:58:18;100806.22;;;5.26;82.04
64908;BME280;69061;52.236;5.188;2024-01-16T09:00:46;100806.81;;;5.32;82.11
64908;BME280;69061;52.236;5.188;2024-01-16T09:03:12;100804.94;;;5.32;81.45
64908;BME280;69061;52.236;5.188;2024-01-16T09:05:39;100790.75;;;5.37;81.23
64908;BME280;69061;52.236;5.188;2024-01-16T09:08:07;100796.56;;;5.30;80.96
64908;BME280;69061;52.236;5.188;2024-01-16T09:10:33;100793.94;;;5.30;80.74
64908;BME280;69061;52.236;5.188;2024-01-16T09:13:00;100791.88;;;5.36;80.66
64908;BME280;69061;52.236;5.188;2024-01-16T09:15:27;100804.38;;;5.39;80.50
64908;BME280;69061;52.236;5.188;2024-01-16T09:17:55;100798.44;;;5.42;79.26
64908;BME280;69061;52.236;5.188;2024-01-16T09:20:22;100787.56;;;5.44;78.76
64908;BME280;69061;52.236;5.188;2024-01-16T09:22:49;100794.19;;;5.50;78.34
64908;BME280;69061;52.236;5.188;2024-01-16T09:25:15;100800.66;;;5.40;78.20
64908;BME280;69061;52.236;5.188;2024-01-16T09:27:42;100809.53;;;5.35;78.03
64908;BME280;69061;52.236;5.188;2024-01-16T09:30:11;100809.66;;;5.39;79.67
64908;BME280;69061;52.236;5.188;2024-01-16T09:32:38;100804.84;;;5.53;79.47
64908;BME280;69061;52.236;5.188;2024-01-16T09:35:07;100806.38;;;5.67;78.25
64908;BME280;69061;52.236;5.188;2024-01-16T09:37:34;100797.50;;;5.59;76.47
64908;BME280;69061;52.236;5.188;2024-01-16T09:40:01;100794.06;;;5.71;77.13
64908;BME280;69061;52.236;5.188;2024-01-16T09:42:30;100801.00;;;5.88;76.59
64908;BME280;69061;52.236;5.188;2024-01-16T09:45:00;100793.44;;;5.99;75.37
64908;BME280;69061;52.236;5.188;2024-01-16T09:47:28;100804.09;;;6.15;75.93
64908;BME280;69061;52.236;5.188;2024-01-16T09:49:57;100798.91;;;6.31;74.06
64908;BME280;69061;52.236;5.188;2024-01-16T09:52:26;100790.75;;;6.23;72.97
64908;BME280;69061;52.236;5.188;2024-01-16T09:54:53;100789.50;;;6.46;74.50
64908;BME280;69061;52.236;5.188;2024-01-16T09:57:23;100784.94;;;6.87;75.55
64908;BME280;69061;52.236;5.188;2024-01-16T09:59:52;100778.41;;;7.45;74.51
64908;BME280;69061;52.236;5.188;2024-01-16T10:02:20;100774.25;;;7.95;70.95
64908;BME280;69061;52.236;5.188;2024-01-16T10:04:48;100778.56;;;7.84;67.33
64908;BME280;69061;52.236;5.188;2024-01-16T10:07:15;100771.91;;;7.74;67.04
64908;BME280;69061;52.236;5.188;2024-01-16T10:09:45;100762.81;;;7.55;65.97
64908;BME280;69061;52.236;5.188;2024-01-16T10:12:11;100772.28;;;7.92;68.07
64908;BME280;69061;52.236;5.188;2024-01-16T10:14:39;100769.19;;;8.84;68.27
64908;BME280;69061;52.236;5.188;2024-01-16T10:17:05;100765.03;;;9.56;64.08
64908;BME280;69061;52.236;5.188;2024-01-16T10:19:47;100772.78;;;9.95;57.28
64908;BME280;69061;52.236;5.188;2024-01-16T10:22:19;100772.97;;;9.53;58.24
64908;BME280;69061;52.236;5.188;2024-01-16T10:24:48;100764.03;;;9.38;56.63
64908;BME280;69061;52.236;5.188;2024-01-16T10:27:15;100760.13;;;8.85;57.12
64908;BME280;69061;52.236;5.188;2024-01-16T10:29:54;100759.84;;;8.32;60.65
64908;BME280;69061;52.236;5.188;2024-01-16T10:32:30;100757.66;;;7.98;60.44
64908;BME280;69061;52.236;5.188;2024-01-16T10:35:04;100762.84;;;7.75;63.45
64908;BME280;69061;52.236;5.188;2024-01-16T10:37:40;100767.28;;;7.71;63.83
64908;BME280;69061;52.236;5.188;2024-01-16T10:40:09;100765.78;;;7.70;63.68
64908;BME280;69061;52.236;5.188;2024-01-16T10:42:36;100764.25;;;7.69;63.20
64908;BME280;69061;52.236;5.188;2024-01-16T10:45:05;100764.06;;;7.62;64.83
64908;BME280;69061;52.236;5.188;2024-01-16T10:47:32;100768.59;;;7.61;66.46
64908;BME280;69061;52.236;5.188;2024-01-16T10:50:03;100772.44;;;7.64;65.16
64908;BME280;69061;52.236;5.188;2024-01-16T10:52:33;100773.13;;;7.61;65.48
64908;BME280;69061;52.236;5.188;2024-01-16T10:55:03;100772.59;;;7.55;66.75
64908;BME280;69061;52.236;5.188;2024-01-16T10:57:33;100764.41;;;7.44;64.30
64908;BME280;69061;52.236;5.188;2024-01-16T11:00:02;100759.66;;;7.34;63.85
64908;BME280;69061;52.236;5.188;2024-01-16T11:02:35;100753.69;;;7.37;64.53
64908;BME280;69061;52.236;5.188;2024-01-16T11:05:05;100759.75;;;7.21;65.21
64908;BME280;69061;52.236;5.188;2024-01-16T11:07:34;100752.31;;;7.27;66.08
64908;BME280;69061;52.236;5.188;2024-01-16T11:10:02;100749.03;;;7.66;65.49
64908;BME280;69061;52.236;5.188;2024-01-16T11:12:30;100747.47;;;8.16;67.00
64908;BME280;69061;52.236;5.188;2024-01-16T11:15:00;100742.38;;;8.66;64.75
64908;BME280;69061;52.236;5.188;2024-01-16T11:17:29;100738.09;;;9.27;62.05
64908;BME280;69061;52.236;5.188;2024-01-16T11:19:58;100734.22;;;9.75;58.04
64908;BME280;69061;52.236;5.188;2024-01-16T11:22:25;100722.72;;;9.94;56.59
64908;BME280;69061;52.236;5.188;2024-01-16T11:25:09;100727.63;;;9.92;53.63
64908;BME280;69061;52.236;5.188;2024-01-16T11:27:36;100719.47;;;9.77;55.85
64908;BME280;69061;52.236;5.188;2024-01-16T11:30:07;100715.25;;;9.73;55.00
64908;BME280;69061;52.236;5.188;2024-01-16T11:32:35;100713.69;;;9.99;53.97
64908;BME280;69061;52.236;5.188;2024-01-16T11:35:02;100700.66;;;9.90;53.58
64908;BME280;69061;52.236;5.188;2024-01-16T11:37:30;100711.59;;;10.15;55.69
64908;BME280;69061;52.236;5.188;2024-01-16T11:40:23;100712.22;;;10.35;51.95
64908;BME280;69061;52.236;5.188;2024-01-16T11:42:52;100714.00;;;10.61;53.98
64908;BME280;69061;52.236;5.188;2024-01-16T11:45:49;100710.50;;;10.54;51.67
64908;BME280;69061;52.236;5.188;2024-01-16T11:48:17;100708.81;;;10.38;51.87
64908;BME280;69061;52.236;5.188;2024-01-16T11:50:44;100703.59;;;10.45;52.43
64908;BME280;69061;52.236;5.188;2024-01-16T11:53:31;100702.03;;;10.41;53.49
64908;BME280;69061;52.236;5.188;2024-01-16T11:56:11;100698.44;;;10.29;52.32
64908;BME280;69061;52.236;5.188;2024-01-16T11:58:45;100693.56;;;9.98;54.73
64908;BME280;69061;52.236;5.188;2024-01-16T12:01:17;100692.44;;;9.68;52.13
64908;BME280;69061;52.236;5.188;2024-01-16T12:03:45;100700.25;;;9.31;53.69
64908;BME280;69061;52.236;5.188;2024-01-16T12:06:16;100701.28;;;8.99;55.14
64908;BME280;69061;52.236;5.188;2024-01-16T12:08:42;100684.97;;;8.74;54.82
64908;BME280;69061;52.236;5.188;2024-01-16T12:11:10;100690.03;;;8.59;56.60
64908;BME280;69061;52.236;5.188;2024-01-16T12:13:37;100702.72;;;8.31;57.33
64908;BME280;69061;52.236;5.188;2024-01-16T12:16:04;100701.34;;;8.17;58.12
64908;BME280;69061;52.236;5.188;2024-01-16T12:18:33;100689.63;;;8.18;58.76
64908;BME280;69061;52.236;5.188;2024-01-16T12:21:08;100700.06;;;8.31;59.13
64908;BME280;69061;52.236;5.188;2024-01-16T12:23:35;100695.19;;;8.52;60.90
64908;BME280;69061;52.236;5.188;2024-01-16T12:26:02;100693.34;;;8.76;59.78
64908;BME280;69061;52.236;5.188;2024-01-16T12:28:29;100696.25;;;8.90;57.68
64908;BME280;69061;52.236;5.188;2024-01-16T12:30:56;100691.66;;;9.14;58.91
64908;BME280;69061;52.236;5.188;2024-01-16T12:33:23;100685.16;;;9.35;58.36
64908;BME280;69061;52.236;5.188;2024-01-16T12:36:00;100669.81;;;9.48;55.62
64908;BME280;69061;52.236;5.188;2024-01-16T12:38:27;100671.13;;;9.61;55.47
64908;BME280;69061;52.236;5.188;2024-01-16T12:40:54;100679.31;;;9.52;55.48
64908;BME280;69061;52.236;5.188;2024-01-16T12:43:21;100679.91;;;9.38;55.21
64908;BME280;69061;52.236;5.188;2024-01-16T12:45:54;100673.56;;;9.20;55.73
64908;BME280;69061;52.236;5.188;2024-01-16T12:48:22;100674.22;;;9.13;56.06
64908;BME280;69061;52.236;5.188;2024-01-16T12:50:51;100678.22;;;9.26;55.84
64908;BME280;69061;52.236;5.188;2024-01-16T12:53:24;100672.50;;;9.24;54.56
64908;BME280;69061;52.236;5.188;2024-01-16T12:55:57;100668.63;;;9.18;54.78
64908;BME280;69061;52.236;5.188;2024-01-16T12:58:25;100677.06;;;9.01;55.68
64908;BME280;69061;52.236;5.188;2024-01-16T13:00:53;100675.72;;;8.87;56.23
64908;BME280;69061;52.236;5.188;2024-01-16T13:03:24;100677.72;;;8.71;56.16